Time;durP1;ratioP1;P1;durP2;ratioP2;P2;SDS_P1;SDS_P2;PMS_P1;PMS_P2;Temp;Humidity;BMP_temperature;BMP_pressure;BME280_temperature;BME280_humidity;BME280_pressure;Samples;Min_cycle;Max_cycle;Signal;HPM_P1;HPM_P2
2022/11/12 00:00:28;;;;;;;21.88;12.10;;;;;;;;;;5057612;28;20049;-69
2022/11/12 00:02:54;;;;;;;20.52;12.02;;;;;;;;;;5062116;28;20423;-69
2022/11/12 00:05:20;;;;;;;18.77;11.60;;;;;;;;;;5063591;28;20053;-70
2022/11/12 00:07:47;;;;;;;18.95;12.77;;;;;;;;;;5061742;28;20053;-69
2022/11/12 00:10:13;;;;;;;14.77;10.57;;;;;;;;;;5063905;28;20503;-69
2022/11/12 00:12:39;;;;;;;19.45;12.32;;;;;;;;;;5064494;28;20061;-69
2022/11/12 00:15:07;;;;;;;16.25;12.70;;;;;;;;;;5064229;28;20076;-70
2022/11/12 00:17:33;;;;;;;20.80;12.48;;;;;;;;;;5058078;28;20057;-69
2022/11/12 00:19:59;;;;;;;16.90;12.05;;;;;;;;;;5059045;28;20059;-70
2022/11/12 00:22:25;;;;;;;16.50;11.80;;;;;;;;;;5063445;28;20558;-69
2022/11/12 00:24:52;;;;;;;19.55;11.95;;;;;;;;;;5050774;28;20207;-70
2022/11/12 00:27:19;;;;;;;14.82;11.15;;;;;;;;;;5057751;28;20052;-70
2022/11/12 00:29:45;;;;;;;16.00;11.00;;;;;;;;;;5051524;28;20053;-69
2022/11/12 00:32:11;;;;;;;18.60;12.27;;;;;;;;;;5043751;28;20056;-69
2022/11/12 00:34:38;;;;;;;17.90;12.43;;;;;;;;;;5049613;28;20059;-69
2022/11/12 00:37:05;;;;;;;17.60;11.38;;;;;;;;;;5059367;28;20609;-70
2022/11/12 00:39:31;;;;;;;20.98;12.38;;;;;;;;;;5045076;28;20492;-69
2022/11/12 00:41:57;;;;;;;17.85;11.63;;;;;;;;;;5045467;28;20161;-69
2022/11/12 00:44:24;;;;;;;16.00;11.63;;;;;;;;;;5056039;28;20041;-68
2022/11/12 00:46:50;;;;;;;15.13;10.73;;;;;;;;;;5062348;28;20045;-69
2022/11/12 00:49:17;;;;;;;21.52;12.70;;;;;;;;;;5054123;28;20049;-68
2022/11/12 00:51:43;;;;;;;17.65;11.80;;;;;;;;;;5072774;28;20640;-68
2022/11/12 00:54:09;;;;;;;15.38;10.95;;;;;;;;;;5049362;28;20059;-68
2022/11/12 00:56:36;;;;;;;16.45;10.93;;;;;;;;;;5059407;28;20049;-68
2022/11/12 00:59:02;;;;;;;16.15;11.48;;;;;;;;;;5051389;28;20096;-69
2022/11/12 01:01:29;;;;;;;17.13;11.30;;;;;;;;;;5042796;28;20060;-68
2022/11/12 01:03:56;;;;;;;14.77;11.25;;;;;;;;;;5056292;28;20322;-68
2022/11/12 01:06:23;;;;;;;16.40;10.73;;;;;;;;;;5052700;28;20104;-68
2022/11/12 01:08:49;;;;;;;16.58;11.15;;;;;;;;;;5053540;28;20150;-69
2022/11/12 01:11:17;;;;;;;17.38;11.32;;;;;;;;;;5058249;28;20061;-68
2022/11/12 01:13:45;;;;;;;19.42;12.00;;;;;;;;;;5050596;28;20050;-69
2022/11/12 01:16:12;;;;;;;15.35;10.55;;;;;;;;;;5056643;28;20045;-69
2022/11/12 01:18:39;;;;;;;15.65;11.55;;;;;;;;;;5056292;28;20065;-68
2022/11/12 01:21:06;;;;;;;20.27;13.27;;;;;;;;;;5039937;28;20049;-69
2022/11/12 01:23:33;;;;;;;17.50;10.90;;;;;;;;;;5043211;28;20558;-68
2022/11/12 01:26:10;;;;;;;16.00;11.68;;;;;;;;;;5055846;28;20540;-69
2022/11/12 01:28:36;;;;;;;15.60;11.25;;;;;;;;;;5046855;28;20805;-69
2022/11/12 01:31:18;;;;;;;17.08;12.52;;;;;;;;;;5053865;28;20069;-69
2022/11/12 01:33:45;;;;;;;14.45;11.00;;;;;;;;;;5066136;28;20057;-69
2022/11/12 01:36:13;;;;;;;17.70;12.05;;;;;;;;;;5058305;28;20053;-68
2022/11/12 01:38:39;;;;;;;16.20;12.43;;;;;;;;;;5059221;28;20057;-68
2022/11/12 01:41:07;;;;;;;18.58;12.85;;;;;;;;;;5051469;28;20083;-68
2022/11/12 01:43:33;;;;;;;19.30;12.75;;;;;;;;;;5054607;28;20079;-67
2022/11/12 01:46:01;;;;;;;15.10;11.70;;;;;;;;;;5048445;28;20049;-68
2022/11/12 01:48:30;;;;;;;16.63;12.27;;;;;;;;;;5052032;28;20056;-67
2022/11/12 01:50:56;;;;;;;17.45;12.40;;;;;;;;;;5055295;28;20052;-68
2022/11/12 01:53:25;;;;;;;14.68;11.60;;;;;;;;;;5057791;28;20053;-68
2022/11/12 01:55:51;;;;;;;21.95;12.32;;;;;;;;;;5058207;28;20045;-69
2022/11/12 01:58:20;;;;;;;20.58;13.07;;;;;;;;;;5060552;28;20511;-68
2022/11/12 02:00:47;;;;;;;16.20;12.90;;;;;;;;;;5058016;28;20057;-68
2022/11/12 02:03:21;;;;;;;17.13;12.43;;;;;;;;;;5050522;28;20498;-68
2022/11/12 02:05:48;;;;;;;16.25;12.40;;;;;;;;;;5044492;28;20057;-68
2022/11/12 02:08:15;;;;;;;18.77;12.40;;;;;;;;;;5058037;28;20053;-68
2022/11/12 02:10:41;;;;;;;18.33;12.40;;;;;;;;;;5060710;28;20519;-68
2022/11/12 02:15:52;;;;;;;18.08;13.45;;;;;;;;;;5050973;28;20115;-70
2022/11/12 02:18:18;;;;;;;18.08;12.90;;;;;;;;;;5045100;28;20053;-68
2022/11/12 02:20:51;;;;;;;21.73;13.45;;;;;;;;;;5058189;28;20107;-68
2022/11/12 02:23:17;;;;;;;16.98;13.18;;;;;;;;;;5059956;28;20050;-68
2022/11/12 02:25:44;;;;;;;18.70;13.80;;;;;;;;;;5057283;28;20542;-68
2022/11/12 02:28:11;;;;;;;19.17;13.38;;;;;;;;;;5060273;28;20056;-68
2022/11/12 02:30:40;;;;;;;18.75;12.70;;;;;;;;;;5058430;28;20156;-70
2022/11/12 02:33:07;;;;;;;18.13;12.48;;;;;;;;;;5047780;28;20056;-70
2022/11/12 02:35:33;;;;;;;16.75;12.45;;;;;;;;;;5058251;28;20566;-67
2022/11/12 02:37:59;;;;;;;17.90;13.07;;;;;;;;;;5061872;28;20567;-70
2022/11/12 02:40:26;;;;;;;18.65;12.50;;;;;;;;;;5057265;28;20523;-69
2022/11/12 02:42:52;;;;;;;24.80;14.35;;;;;;;;;;5044650;28;20061;-69
2022/11/12 02:45:19;;;;;;;19.92;13.35;;;;;;;;;;5059132;28;20068;-69
2022/11/12 02:47:45;;;;;;;19.05;13.30;;;;;;;;;;5063285;28;20057;-69
2022/11/12 02:50:11;;;;;;;16.55;12.85;;;;;;;;;;5061552;28;20056;-69
2022/11/12 02:52:41;;;;;;;21.13;13.05;;;;;;;;;;5055943;28;20060;-69
2022/11/12 02:55:08;;;;;;;16.30;13.02;;;;;;;;;;5049428;28;20503;-69
2022/11/12 02:57:36;;;;;;;22.50;13.90;;;;;;;;;;5054950;28;20083;-69
2022/11/12 03:00:07;;;;;;;17.58;13.00;;;;;;;;;;5062727;28;20834;-69
2022/11/12 03:02:34;;;;;;;22.23;13.20;;;;;;;;;;5056475;28;20053;-69
2022/11/12 03:05:00;;;;;;;21.02;13.25;;;;;;;;;;5064685;28;20278;-69
2022/11/12 03:07:26;;;;;;;18.80;12.85;;;;;;;;;;5052603;28;21236;-68
2022/11/12 03:09:53;;;;;;;20.10;14.18;;;;;;;;;;5056589;28;20049;-68
2022/11/12 03:12:19;;;;;;;18.17;12.85;;;;;;;;;;5063553;28;20486;-68
2022/11/12 03:14:45;;;;;;;17.33;13.05;;;;;;;;;;5063433;28;20049;-69
2022/11/12 03:17:11;;;;;;;17.42;13.52;;;;;;;;;;5050831;28;20049;-70
2022/11/12 03:19:38;;;;;;;21.88;14.88;;;;;;;;;;5045627;28;20523;-68
2022/11/12 03:22:04;;;;;;;21.90;14.57;;;;;;;;;;5062675;28;20052;-68
2022/11/12 03:24:30;;;;;;;17.92;13.68;;;;;;;;;;5059917;28;20049;-67
2022/11/12 03:26:58;;;;;;;21.08;14.65;;;;;;;;;;5054041;28;20537;-68
2022/11/12 03:29:25;;;;;;;22.33;14.52;;;;;;;;;;5049278;28;20582;-68
2022/11/12 03:31:51;;;;;;;20.23;14.48;;;;;;;;;;5047025;28;20779;-68
2022/11/12 03:34:17;;;;;;;19.23;13.75;;;;;;;;;;5047336;28;20080;-68
2022/11/12 03:36:44;;;;;;;18.08;14.07;;;;;;;;;;5056474;28;20054;-68
2022/11/12 03:39:10;;;;;;;21.48;13.63;;;;;;;;;;5052900;28;20057;-68
2022/11/12 03:41:37;;;;;;;21.85;14.77;;;;;;;;;;5052800;28;20053;-70
2022/11/12 03:44:03;;;;;;;24.05;14.80;;;;;;;;;;5053441;28;20061;-70
2022/11/12 03:46:29;;;;;;;20.88;14.35;;;;;;;;;;5050679;28;20057;-70
2022/11/12 03:48:58;;;;;;;19.50;14.20;;;;;;;;;;5052082;28;20056;-69
2022/11/12 03:51:24;;;;;;;22.38;16.55;;;;;;;;;;5054169;28;20053;-69
2022/11/12 03:53:50;;;;;;;24.63;15.05;;;;;;;;;;5051168;28;20053;-69
2022/11/12 03:56:16;;;;;;;24.25;15.68;;;;;;;;;;5047693;28;20041;-69
2022/11/12 03:58:43;;;;;;;20.77;15.10;;;;;;;;;;5042697;28;20561;-70
2022/11/12 04:01:09;;;;;;;19.30;14.27;;;;;;;;;;5044183;28;20049;-70
2022/11/12 04:03:36;;;;;;;20.55;14.13;;;;;;;;;;5056475;28;20053;-69
2022/11/12 04:08:47;;;;;;;19.73;13.77;;;;;;;;;;5057260;28;20527;-67
2022/11/12 04:11:15;;;;;;;20.73;14.07;;;;;;;;;;5044650;28;20045;-68
2022/11/12 04:13:44;;;;;;;19.52;14.32;;;;;;;;;;5057521;28;20408;-69
2022/11/12 04:21:50;;;;;;;19.95;14.13;;;;;;;;;;5053858;28;20053;-68
2022/11/12 04:27:02;;;;;;;;;;;;;;;;;;5055118;28;20107;-68
2022/11/12 04:32:22;;;;;;;18.48;13.35;;;;;;;;;;5023378;28;20518;-68
2022/11/12 04:34:48;;;;;;;17.85;13.20;;;;;;;;;;5058972;28;20491;-68
2022/11/12 04:37:14;;;;;;;17.45;13.43;;;;;;;;;;5045435;28;20061;-69
2022/11/12 04:39:47;;;;;;;18.73;13.55;;;;;;;;;;5053740;28;20060;-68
2022/11/12 04:44:59;;;;;;;20.02;12.95;;;;;;;;;;5047402;28;20430;-68
2022/11/12 04:47:27;;;;;;;18.70;13.85;;;;;;;;;;5070736;28;20536;-69
2022/11/12 04:49:53;;;;;;;22.23;14.30;;;;;;;;;;5044662;28;20061;-68
2022/11/12 04:52:20;;;;;;;19.13;14.45;;;;;;;;;;5052108;28;20061;-69
2022/11/12 04:54:47;;;;;;;22.73;14.45;;;;;;;;;;5058818;28;20507;-69
2022/11/12 04:57:13;;;;;;;17.35;13.52;;;;;;;;;;5049582;28;20048;-69
2022/11/12 04:59:39;;;;;;;20.75;13.93;;;;;;;;;;5050957;28;20068;-69
2022/11/12 05:02:06;;;;;;;19.13;13.38;;;;;;;;;;5061654;28;20056;-68
2022/11/12 05:04:32;;;;;;;14.80;12.00;;;;;;;;;;5046437;28;20119;-69
2022/11/12 05:06:58;;;;;;;18.77;12.68;;;;;;;;;;5043159;28;20482;-69
2022/11/12 05:09:26;;;;;;;18.40;13.00;;;;;;;;;;5057395;28;20049;-68
2022/11/12 05:11:56;;;;;;;16.30;13.13;;;;;;;;;;5057047;28;20050;-68
2022/11/12 05:14:23;;;;;;;16.40;12.60;;;;;;;;;;5042693;28;20061;-68
2022/11/12 05:16:49;;;;;;;17.15;13.10;;;;;;;;;;5050952;28;20086;-68
2022/11/12 05:19:16;;;;;;;17.25;13.48;;;;;;;;;;5061039;28;20063;-67
2022/11/12 05:24:28;;;;;;;15.40;12.18;;;;;;;;;;5048241;28;20545;-68
2022/11/12 05:27:14;;;;;;;17.58;13.13;;;;;;;;;;5043045;28;20053;-68
2022/11/12 05:29:41;;;;;;;18.73;13.10;;;;;;;;;;5043369;28;21089;-68
2022/11/12 05:32:09;;;;;;;15.88;13.10;;;;;;;;;;5048170;28;21100;-69
2022/11/12 05:34:36;;;;;;;17.55;13.23;;;;;;;;;;5042259;28;20128;-68
2022/11/12 05:37:03;;;;;;;19.85;13.65;;;;;;;;;;5054557;28;20056;-68
2022/11/12 05:39:29;;;;;;;20.80;14.13;;;;;;;;;;5052125;28;20057;-68
2022/11/12 05:41:55;;;;;;;21.25;14.40;;;;;;;;;;5056476;28;20079;-68
2022/11/12 05:44:39;;;;;;;19.17;13.57;;;;;;;;;;5054916;28;20068;-68
2022/11/12 05:47:06;;;;;;;19.52;13.68;;;;;;;;;;5057925;28;20095;-68
2022/11/12 05:49:32;;;;;;;17.45;13.68;;;;;;;;;;5050515;28;20059;-67
2022/11/12 05:51:58;;;;;;;19.48;14.48;;;;;;;;;;5058054;28;20520;-68
2022/11/12 05:54:25;;;;;;;19.92;13.77;;;;;;;;;;5054963;28;20065;-70
2022/11/12 05:56:52;;;;;;;17.90;12.80;;;;;;;;;;5060419;28;20056;-68
2022/11/12 05:59:18;;;;;;;18.55;14.05;;;;;;;;;;5047693;28;20064;-68
2022/11/12 06:01:45;;;;;;;19.20;13.63;;;;;;;;;;5048731;28;20053;-68
2022/11/12 06:04:14;;;;;;;20.40;14.30;;;;;;;;;;5062713;28;20053;-70
2022/11/12 06:06:41;;;;;;;21.92;14.68;;;;;;;;;;5047123;28;20060;-68
2022/11/12 06:09:08;;;;;;;19.27;13.77;;;;;;;;;;5046106;28;20046;-68
2022/11/12 06:11:34;;;;;;;22.83;14.98;;;;;;;;;;5055716;28;20059;-68
2022/11/12 06:14:01;;;;;;;20.23;14.55;;;;;;;;;;5061590;28;20419;-68
2022/11/12 06:16:28;;;;;;;19.88;14.68;;;;;;;;;;5060756;28;20053;-68
2022/11/12 06:18:55;;;;;;;22.10;14.73;;;;;;;;;;5061250;28;20060;-68
2022/11/12 06:21:21;;;;;;;21.08;14.45;;;;;;;;;;5053200;28;20057;-67
2022/11/12 06:23:50;;;;;;;20.02;14.95;;;;;;;;;;5044648;28;20045;-68
2022/11/12 06:26:17;;;;;;;18.85;13.73;;;;;;;;;;5053950;28;20064;-69
2022/11/12 06:28:43;;;;;;;22.02;14.50;;;;;;;;;;5064059;28;20063;-68
2022/11/12 06:31:10;;;;;;;19.40;13.27;;;;;;;;;;5062523;28;20049;-68
2022/11/12 06:33:37;;;;;;;17.95;13.32;;;;;;;;;;5045003;28;20061;-68
2022/11/12 06:36:04;;;;;;;17.10;12.73;;;;;;;;;;5052551;28;20130;-67
2022/11/12 06:38:31;;;;;;;18.45;12.77;;;;;;;;;;5061670;28;20056;-68
2022/11/12 06:40:57;;;;;;;20.65;13.80;;;;;;;;;;5055357;28;20498;-68
2022/11/12 06:43:24;;;;;;;19.35;13.70;;;;;;;;;;5045167;28;20054;-68
2022/11/12 06:45:51;;;;;;;21.20;13.48;;;;;;;;;;5049740;28;20572;-67
2022/11/12 06:48:17;;;;;;;19.20;13.40;;;;;;;;;;5062615;28;20054;-69
2022/11/12 06:50:44;;;;;;;19.90;13.57;;;;;;;;;;5052808;28;20049;-70
2022/11/12 06:53:10;;;;;;;18.00;14.50;;;;;;;;;;5048757;28;20049;-70
2022/11/12 06:55:37;;;;;;;20.08;13.48;;;;;;;;;;5060619;28;20060;-69
2022/11/12 06:58:03;;;;;;;18.33;11.88;;;;;;;;;;5059173;28;20114;-69
2022/11/12 07:00:29;;;;;;;18.67;12.80;;;;;;;;;;5061632;28;20064;-69
2022/11/12 07:02:56;;;;;;;17.00;12.88;;;;;;;;;;5058928;28;20112;-69
2022/11/12 07:05:22;;;;;;;16.70;12.88;;;;;;;;;;5052892;28;20670;-70
2022/11/12 07:07:49;;;;;;;18.45;12.57;;;;;;;;;;5057112;28;20053;-69
2022/11/12 07:10:15;;;;;;;21.58;13.15;;;;;;;;;;5063026;28;20045;-69
2022/11/12 07:12:42;;;;;;;19.48;13.20;;;;;;;;;;5049299;28;20484;-69
2022/11/12 07:15:08;;;;;;;18.67;12.55;;;;;;;;;;5061080;28;20049;-69
2022/11/12 07:17:35;;;;;;;20.38;12.25;;;;;;;;;;5057125;28;20709;-69
2022/11/12 07:20:02;;;;;;;19.52;13.07;;;;;;;;;;5046202;28;20067;-68
2022/11/12 07:22:31;;;;;;;17.85;11.95;;;;;;;;;;5057290;28;20133;-69
2022/11/12 07:24:57;;;;;;;18.65;13.27;;;;;;;;;;5045860;28;20350;-68
2022/11/12 07:27:24;;;;;;;20.52;12.93;;;;;;;;;;5045089;28;20111;-68
2022/11/12 07:29:50;;;;;;;16.85;12.48;;;;;;;;;;5057783;28;20508;-70
2022/11/12 07:32:16;;;;;;;19.17;12.88;;;;;;;;;;5059427;28;20073;-69
2022/11/12 07:34:43;;;;;;;16.35;11.65;;;;;;;;;;5047649;28;20492;-70
2022/11/12 07:37:09;;;;;;;18.10;12.75;;;;;;;;;;5064562;28;20049;-70
2022/11/12 07:39:36;;;;;;;16.67;12.13;;;;;;;;;;5067005;28;20521;-69
2022/11/12 07:42:02;;;;;;;19.30;13.23;;;;;;;;;;5056400;28;20053;-70
2022/11/12 07:44:28;;;;;;;16.35;11.98;;;;;;;;;;5051357;28;20610;-69
2022/11/12 07:46:55;;;;;;;13.73;11.23;;;;;;;;;;5046752;28;20064;-69
2022/11/12 07:49:21;;;;;;;18.65;12.55;;;;;;;;;;5062878;28;20511;-68
2022/11/12 07:51:47;;;;;;;20.42;13.15;;;;;;;;;;5053891;28;20048;-68
2022/11/12 07:54:14;;;;;;;17.10;12.15;;;;;;;;;;5059312;28;20503;-69
2022/11/12 07:56:40;;;;;;;14.95;11.80;;;;;;;;;;5061921;28;20072;-68
2022/11/12 07:59:07;;;;;;;19.25;12.57;;;;;;;;;;5063941;28;20148;-69
2022/11/12 08:01:38;;;;;;;15.00;11.88;;;;;;;;;;5062364;28;20053;-69
2022/11/12 08:04:06;;;;;;;17.95;12.98;;;;;;;;;;5061025;28;20049;-70
2022/11/12 08:06:33;;;;;;;14.60;11.80;;;;;;;;;;5059639;28;20056;-70
2022/11/12 08:09:00;;;;;;;19.42;12.18;;;;;;;;;;5061332;28;20146;-70
2022/11/12 08:11:26;;;;;;;17.73;12.82;;;;;;;;;;5061915;28;20057;-69
2022/11/12 08:13:53;;;;;;;18.08;11.90;;;;;;;;;;5054348;28;20065;-70
2022/11/12 08:16:19;;;;;;;15.32;12.50;;;;;;;;;;5062479;28;20045;-69
2022/11/12 08:18:45;;;;;;;17.95;12.13;;;;;;;;;;5058849;28;20060;-69
2022/11/12 08:21:13;;;;;;;18.13;13.07;;;;;;;;;;5058669;28;20139;-68
2022/11/12 08:23:39;;;;;;;16.58;12.65;;;;;;;;;;5061522;28;20052;-68
2022/11/12 08:26:07;;;;;;;15.82;12.20;;;;;;;;;;5063846;28;20099;-69
2022/11/12 08:28:35;;;;;;;14.63;11.95;;;;;;;;;;5063315;28;20799;-71
2022/11/12 08:31:07;;;;;;;18.30;12.13;;;;;;;;;;5060231;28;20514;-69
2022/11/12 08:33:34;;;;;;;15.50;12.48;;;;;;;;;;5044417;28;20566;-68
2022/11/12 08:36:03;;;;;;;18.08;13.05;;;;;;;;;;5050163;28;20742;-70
2022/11/12 08:38:30;;;;;;;16.77;13.45;;;;;;;;;;5042331;28;20210;-71
2022/11/12 08:41:04;;;;;;;18.95;12.50;;;;;;;;;;5042148;28;20064;-68
2022/11/12 08:43:30;;;;;;;18.25;13.32;;;;;;;;;;5042932;28;20077;-68
2022/11/12 08:45:57;;;;;;;15.90;13.05;;;;;;;;;;5045155;28;20057;-69
2022/11/12 08:48:24;;;;;;;15.40;12.30;;;;;;;;;;5058659;28;20061;-71
2022/11/12 08:50:51;;;;;;;16.40;12.43;;;;;;;;;;5061120;28;20187;-69
2022/11/12 08:53:17;;;;;;;17.95;12.55;;;;;;;;;;5058986;28;20477;-69
2022/11/12 08:55:43;;;;;;;20.67;12.60;;;;;;;;;;5054574;28;20046;-69
2022/11/12 08:58:10;;;;;;;19.65;12.88;;;;;;;;;;5043126;28;20057;-69
2022/11/12 09:00:38;;;;;;;17.95;12.60;;;;;;;;;;5056980;28;20057;-68
2022/11/12 09:03:06;;;;;;;15.60;12.07;;;;;;;;;;5062058;28;20499;-68
2022/11/12 09:05:35;;;;;;;14.63;12.23;;;;;;;;;;5059318;28;20053;-69
2022/11/12 09:08:03;;;;;;;17.20;13.55;;;;;;;;;;5062941;28;20519;-71
2022/11/12 09:10:30;;;;;;;17.30;13.75;;;;;;;;;;5059805;28;20063;-70
2022/11/12 09:12:56;;;;;;;16.02;11.57;;;;;;;;;;5061180;28;20059;-69
2022/11/12 09:15:23;;;;;;;17.65;12.65;;;;;;;;;;5064090;28;20569;-69
2022/11/12 09:18:07;;;;;;;15.90;11.95;;;;;;;;;;5068902;28;20108;-69
2022/11/12 09:20:33;;;;;;;16.70;12.43;;;;;;;;;;5051459;28;20052;-70
2022/11/12 09:23:01;;;;;;;14.98;12.57;;;;;;;;;;5080387;28;20459;-70
2022/11/12 09:25:27;;;;;;;16.38;12.75;;;;;;;;;;5062835;28;20525;-70
2022/11/12 09:27:53;;;;;;;16.60;12.07;;;;;;;;;;5058297;28;20066;-69
2022/11/12 09:30:20;;;;;;;16.38;12.50;;;;;;;;;;5060099;28;20505;-70
2022/11/12 09:32:46;;;;;;;20.55;13.35;;;;;;;;;;5077370;28;20135;-69
2022/11/12 09:35:13;;;;;;;20.23;12.63;;;;;;;;;;5070274;28;20499;-69
2022/11/12 09:37:39;;;;;;;17.38;13.52;;;;;;;;;;5053006;28;20058;-69
2022/11/12 09:40:08;;;;;;;17.58;13.20;;;;;;;;;;5044025;28;20079;-69
2022/11/12 09:42:35;;;;;;;15.80;12.35;;;;;;;;;;5048823;28;20143;-70
2022/11/12 09:45:10;;;;;;;17.95;12.70;;;;;;;;;;5062029;28;20053;-70
2022/11/12 09:47:39;;;;;;;17.60;12.95;;;;;;;;;;5073927;28;20541;-70
2022/11/12 09:50:24;;;;;;;22.35;12.65;;;;;;;;;;5076347;28;20076;-70
2022/11/12 09:52:54;;;;;;;17.25;13.02;;;;;;;;;;5060454;28;20083;-71
2022/11/12 09:55:20;;;;;;;15.90;12.90;;;;;;;;;;5056966;28;20045;-71
2022/11/12 09:57:46;;;;;;;16.30;12.65;;;;;;;;;;5064288;28;20594;-71
2022/11/12 10:00:16;;;;;;;17.58;12.48;;;;;;;;;;5061172;28;20049;-70
2022/11/12 10:02:45;;;;;;;16.35;13.23;;;;;;;;;;5081851;28;20064;-70
2022/11/12 10:05:21;;;;;;;15.95;12.50;;;;;;;;;;5065547;28;20056;-69
2022/11/12 10:07:50;;;;;;;16.38;12.27;;;;;;;;;;5061753;28;20056;-69
2022/11/12 10:10:31;;;;;;;17.80;13.60;;;;;;;;;;5058987;28;20549;-71
2022/11/12 10:13:04;;;;;;;24.25;14.23;;;;;;;;;;5055990;28;20049;-69
2022/11/12 10:18:24;;;;;;;18.30;14.13;;;;;;;;;;5081811;28;20656;-70
2022/11/12 10:20:54;;;;;;;18.77;13.88;;;;;;;;;;5080821;28;20114;-71
2022/11/12 10:23:39;;;;;;;17.70;13.98;;;;;;;;;;5062463;28;20563;-70
2022/11/12 10:26:12;;;;;;;19.20;14.52;;;;;;;;;;5069510;28;20606;-71
2022/11/12 10:28:49;;;;;;;24.17;14.85;;;;;;;;;;5048754;28;20060;-70
2022/11/12 10:31:17;;;;;;;22.52;15.30;;;;;;;;;;5069827;28;20052;-70
2022/11/12 10:33:43;;;;;;;19.42;13.63;;;;;;;;;;5066013;28;20063;-70
2022/11/12 10:36:14;;;;;;;17.92;13.77;;;;;;;;;;5064239;28;20057;-69
2022/11/12 10:38:42;;;;;;;18.60;14.45;;;;;;;;;;5070302;28;20049;-70
2022/11/12 10:41:19;;;;;;;17.25;13.32;;;;;;;;;;5076078;28;20057;-69
2022/11/12 10:44:12;;;;;;;16.67;13.35;;;;;;;;;;5081236;28;20514;-69
2022/11/12 10:46:38;;;;;;;20.85;14.00;;;;;;;;;;5080371;28;20044;-70
2022/11/12 10:49:07;;;;;;;20.00;13.70;;;;;;;;;;5061374;28;20057;-69
2022/11/12 10:51:34;;;;;;;18.73;13.95;;;;;;;;;;5067766;28;20068;-70
2022/11/12 10:54:21;;;;;;;16.70;13.30;;;;;;;;;;5053174;28;20430;-70
2022/11/12 10:56:48;;;;;;;18.20;12.73;;;;;;;;;;5043719;28;20049;-70
2022/11/12 10:59:24;;;;;;;15.80;13.00;;;;;;;;;;5085190;28;20130;-68
2022/11/12 11:01:57;;;;;;;17.48;13.68;;;;;;;;;;5066216;28;20049;-68
2022/11/12 11:04:34;;;;;;;16.50;12.82;;;;;;;;;;5066580;28;20053;-69
2022/11/12 11:07:22;;;;;;;16.58;12.70;;;;;;;;;;5068971;28;20066;-71
2022/11/12 11:09:52;;;;;;;14.98;11.95;;;;;;;;;;5065791;28;20553;-71
2022/11/12 11:12:25;;;;;;;13.88;11.85;;;;;;;;;;5058974;28;20051;-67
2022/11/12 11:15:06;;;;;;;16.75;12.00;;;;;;;;;;5070256;28;20060;-69
2022/11/12 11:17:33;;;;;;;20.02;12.63;;;;;;;;;;5083483;28;20065;-70
2022/11/12 11:20:00;;;;;;;16.13;12.07;;;;;;;;;;5072864;28;20049;-71
2022/11/12 11:22:29;;;;;;;17.48;13.25;;;;;;;;;;5063906;28;20053;-69
2022/11/12 11:25:13;;;;;;;15.35;11.68;;;;;;;;;;5069118;28;20049;-70
2022/11/12 11:27:45;;;;;;;13.60;10.55;;;;;;;;;;5062090;28;20168;-69
2022/11/12 11:30:19;;;;;;;18.40;10.07;;;;;;;;;;5063381;28;20057;-71
2022/11/12 11:33:04;;;;;;;12.35;8.93;;;;;;;;;;5056615;28;20129;-69
2022/11/12 11:35:30;;;;;;;10.98;8.07;;;;;;;;;;5056690;28;20072;-70
2022/11/12 11:37:56;;;;;;;13.00;7.95;;;;;;;;;;5058707;28;20057;-67
2022/11/12 11:40:27;;;;;;;10.88;7.80;;;;;;;;;;5068700;28;20061;-68
2022/11/12 11:42:53;;;;;;;9.77;7.82;;;;;;;;;;5077245;28;20063;-67
2022/11/12 11:45:38;;;;;;;10.73;7.45;;;;;;;;;;5076209;28;20059;-68
2022/11/12 11:48:22;;;;;;;10.95;8.10;;;;;;;;;;5052986;28;20053;-69
2022/11/12 11:50:52;;;;;;;14.40;8.40;;;;;;;;;;5055816;28;20045;-68
2022/11/12 11:53:22;;;;;;;9.32;6.93;;;;;;;;;;5065077;28;20056;-68
2022/11/12 11:55:51;;;;;;;10.38;7.57;;;;;;;;;;5082766;28;20048;-68
2022/11/12 11:58:24;;;;;;;10.98;7.32;;;;;;;;;;5062626;28;20064;-68
2022/11/12 12:00:52;;;;;;;10.55;7.30;;;;;;;;;;5063169;28;20115;-68
2022/11/12 12:03:21;;;;;;;11.63;7.03;;;;;;;;;;5059443;28;20048;-68
2022/11/12 12:05:47;;;;;;;10.45;6.97;;;;;;;;;;5082838;28;20124;-70
2022/11/12 12:08:20;;;;;;;10.70;6.78;;;;;;;;;;5075259;28;20056;-69
2022/11/12 12:11:11;;;;;;;8.02;6.50;;;;;;;;;;5062984;28;20053;-67
2022/11/12 12:13:40;;;;;;;10.40;7.13;;;;;;;;;;5067433;28;20521;-67
2022/11/12 12:16:06;;;;;;;9.80;6.55;;;;;;;;;;5065331;28;20063;-69
2022/11/12 12:18:43;;;;;;;11.60;6.78;;;;;;;;;;5072781;28;20049;-70
2022/11/12 12:21:15;;;;;;;7.65;6.15;;;;;;;;;;5083735;28;20052;-69
2022/11/12 12:23:47;;;;;;;10.30;5.90;;;;;;;;;;5074610;28;20049;-70
2022/11/12 12:26:16;;;;;;;7.10;5.63;;;;;;;;;;5044448;28;20060;-70
2022/11/12 12:28:46;;;;;;;8.73;5.57;;;;;;;;;;5074985;28;20048;-70
2022/11/12 12:31:14;;;;;;;7.13;5.40;;;;;;;;;;5082444;28;20075;-72
2022/11/12 12:33:57;;;;;;;7.57;5.38;;;;;;;;;;5076924;28;20049;-69
2022/11/12 12:36:25;;;;;;;6.30;5.07;;;;;;;;;;5073539;28;20048;-71
2022/11/12 12:39:13;;;;;;;5.80;4.80;;;;;;;;;;5046147;28;20068;-69
2022/11/12 12:41:50;;;;;;;7.13;5.30;;;;;;;;;;5053201;28;20091;-72
2022/11/12 12:44:16;;;;;;;5.75;5.07;;;;;;;;;;5065037;28;20075;-72
2022/11/12 12:46:52;;;;;;;9.15;6.05;;;;;;;;;;5060037;28;20495;-71
2022/11/12 12:49:21;;;;;;;6.07;4.78;;;;;;;;;;5061779;28;20048;-70
2022/11/12 12:51:47;;;;;;;7.45;5.43;;;;;;;;;;5062543;28;20127;-72
2022/11/12 12:54:36;;;;;;;6.80;5.10;;;;;;;;;;5046316;28;20178;-69
2022/11/12 12:57:02;;;;;;;7.72;5.38;;;;;;;;;;5048920;28;20096;-68
2022/11/12 12:59:29;;;;;;;5.72;4.85;;;;;;;;;;5080843;28;20064;-68
2022/11/12 13:02:00;;;;;;;5.80;4.70;;;;;;;;;;5075181;28;20045;-67
2022/11/12 13:04:44;;;;;;;6.22;4.65;;;;;;;;;;5062333;28;20964;-70
2022/11/12 13:07:11;;;;;;;8.18;4.95;;;;;;;;;;5043889;28;20053;-71
2022/11/12 13:09:37;;;;;;;8.30;5.22;;;;;;;;;;5063039;28;20057;-70
2022/11/12 13:14:30;;;;;;;9.23;4.82;;;;;;;;;;5078308;28;20056;-68
2022/11/12 13:16:59;;;;;;;8.82;5.78;;;;;;;;;;5059333;28;21087;-69
2022/11/12 13:19:26;;;;;;;8.15;5.93;;;;;;;;;;5061670;28;20521;-68
2022/11/12 13:22:11;;;;;;;8.73;5.80;;;;;;;;;;5061823;28;20060;-67
2022/11/12 13:24:57;;;;;;;8.35;6.20;;;;;;;;;;5061783;28;20060;-68
2022/11/12 13:27:47;;;;;;;7.72;5.72;;;;;;;;;;5063538;28;20049;-68
2022/11/12 13:30:15;;;;;;;11.02;7.30;;;;;;;;;;5066029;28;20053;-68
2022/11/12 13:32:50;;;;;;;10.73;7.50;;;;;;;;;;5059507;28;20566;-69
2022/11/12 13:35:16;;;;;;;;;;;;;;;;;;5049917;28;20553;-72
2022/11/12 13:37:43;;;;;;;12.15;7.13;;;;;;;;;;5055057;28;44165;-71
2022/11/12 13:40:12;;;;;;;8.27;6.85;;;;;;;;;;5058181;28;20396;-70
2022/11/12 13:42:47;;;;;;;8.60;6.50;;;;;;;;;;5063737;28;20051;-71
2022/11/12 13:45:15;;;;;;;7.95;7.03;;;;;;;;;;5071454;28;20523;-71
2022/11/12 13:47:42;;;;;;;9.63;6.78;;;;;;;;;;5082722;28;20422;-71
2022/11/12 13:50:12;;;;;;;9.88;6.60;;;;;;;;;;5082680;28;20053;-70
2022/11/12 13:52:39;;;;;;;7.80;6.30;;;;;;;;;;5077532;28;20056;-70
2022/11/12 13:55:12;;;;;;;8.85;6.20;;;;;;;;;;5078675;28;20543;-71
2022/11/12 13:57:38;;;;;;;7.25;6.18;;;;;;;;;;5057748;28;20053;-70
2022/11/12 14:00:09;;;;;;;12.63;6.07;;;;;;;;;;5052905;28;20613;-70
2022/11/12 14:02:36;;;;;;;12.00;7.97;;;;;;;;;;5045316;28;20053;-69
2022/11/12 14:05:14;;;;;;;8.43;7.28;;;;;;;;;;5066360;28;20128;-69
2022/11/12 14:07:59;;;;;;;8.27;6.95;;;;;;;;;;5060976;28;20052;-72
2022/11/12 14:10:41;;;;;;;9.60;7.00;;;;;;;;;;5076980;28;20053;-70
2022/11/12 14:13:21;;;;;;;11.18;9.02;;;;;;;;;;5079600;28;20049;-71
2022/11/12 14:15:57;;;;;;;13.65;8.48;;;;;;;;;;5061923;28;20375;-72
2022/11/12 14:18:42;;;;;;;13.18;8.93;;;;;;;;;;5053962;28;20095;-73
2022/11/12 14:21:12;;;;;;;21.77;13.80;;;;;;;;;;5077051;28;20607;-71
2022/11/12 14:23:38;;;;;;;20.73;14.48;;;;;;;;;;5066533;28;20530;-72
2022/11/12 14:26:05;;;;;;;18.35;14.80;;;;;;;;;;5084377;28;20053;-72
2022/11/12 14:28:32;;;;;;;16.98;13.63;;;;;;;;;;5082471;28;20418;-73
2022/11/12 14:31:00;;;;;;;17.63;12.30;;;;;;;;;;5064260;28;20064;-71
2022/11/12 14:33:27;;;;;;;13.10;10.18;;;;;;;;;;5062823;28;20510;-71
2022/11/12 14:36:05;;;;;;;13.25;10.80;;;;;;;;;;5083747;28;20056;-72
2022/11/12 14:38:45;;;;;;;12.55;9.48;;;;;;;;;;5071036;28;20558;-72
2022/11/12 14:41:19;;;;;;;11.45;9.13;;;;;;;;;;5063257;28;20187;-73
2022/11/12 14:43:47;;;;;;;16.60;8.60;;;;;;;;;;5079074;28;20064;-70
2022/11/12 14:46:29;;;;;;;9.05;7.80;;;;;;;;;;5063142;28;20590;-72
2022/11/12 14:48:58;;;;;;;13.15;8.85;;;;;;;;;;5071066;28;20565;-73
2022/11/12 14:51:27;;;;;;;11.10;8.70;;;;;;;;;;5055136;28;20046;-73
2022/11/12 14:53:55;;;;;;;12.63;8.73;;;;;;;;;;5060197;28;21016;-71
2022/11/12 14:56:24;;;;;;;11.77;8.93;;;;;;;;;;5081620;28;20098;-72
2022/11/12 14:58:55;;;;;;;12.25;9.43;;;;;;;;;;5065133;28;20049;-72